METAR Data
IDs: Format: Raw Decoded Include TAF

Data at: 0540 UTC 28 Sep 2022

METAR for:LFQQ (Lille/Lesquin Arpt, HD, FR)
Text:LFQQ 280530Z AUTO 27005KT 9999 FEW026 07/06 Q0998 TEMPO 3000 BR
Temperature: 7.0°C ( 45°F)
Dewpoint: 6.0°C ( 43°F) [RH = 93%]
Pressure (altimeter):29.47 inches Hg ( 998.0 mb)
Winds:from the W (270 degrees) at 6 MPH (5 knots; 2.6 m/s)
Visibility:6 or more sm (10+ km)
Ceiling:at least 12,000 feet AGL
Clouds: few clouds at 2600 feet AGL

TAF for:LFQQ (Lille/Lesquin Arpt, HD, FR) issued at 2300 UTC 27 Sep 2022
Text:TAF LFQQ 272300Z 2800/2906 24006KT 9999 SCT040
Forecast period:0000 UTC 28 September 2022 to 0600 UTC 29 September 2022
Forecast type:FROM: standard forecast or significant change
Winds:from the WSW (240 degrees) at 7 MPH (6 knots; 3.1 m/s)
Visibility:6 or more sm (10+ km)
Ceiling:at least 12,000 feet AGL
Clouds: scattered clouds at 4000 feet AGL
Text:TEMPO 2803/2808 3000 BR
Forecast period:0300 to 0800 UTC 28 September 2022
Forecast type:TEMPORARY: The following changes expected for less than half the time period
Visibility: 1.86 sm ( 2.99 km)
Clouds:missing
Weather:BR (mist)
Text:PROB30 2903/2906 0600 BCFG
Forecast period:0300 to 0600 UTC 29 September 2022
Forecast type:PROBABLE: 30 percent likelihood of the following during this time
Visibility: 0.37 sm ( 0.60 km)
Clouds:missing
Weather:BCFG (patches of fog)